Kirkwood, CA (95646)

8:47 PM PDT on October 01, 2014 (GMT -0700)
Lake Tahoe | Change Station
CLOSE
Current Station
Airport
Location: South Lake Tahoe,
Elevation: 6263 ft
Nearby Weather Stations

Elev 6263 ft 38.90 °N, 120.00 °W | Updated 54 minutes ago

Clear
Clear
46 °F
Feels Like 46 °F
N
0
Wind Variable Wind from North

Today
High -- | Low -- °F
--% Chance of Precip.
Yesterday
High -- | Low -- °F
Precip. -- in
6:56 AM 6:42 PM
First Quarter, 54% visible
Pressure 30.16 in
Visibility 10.0 miles
Clouds Clear
Dew Point 31 °F
Humidity 56%
Rainfall 0.00 in
Snow Depth 0 in , 1 in , 1 in
UV 0 out of 12
Pollen 6.40 out of 12
Ozone Good
Flu Activity Not available.
METAR KTVL 020253Z AUTO 00000KT 10SM CLR 08/M01 A3021 RMK AO2 SLP213 T00781006 53012

More Conditions Fewer Conditions

Pressure 30.16 in
Visibility 10.0 miles
Clouds Clear
Dew Point 31 °F
Humidity 56%
Rainfall 0.00 in
Snow Depth 0 in , 1 in , 1 in
UV 0 out of 12
Pollen 6.40 out of 12
Ozone Good
Flu Activity Not available.
METAR KTVL 020253Z AUTO 00000KT 10SM CLR 08/M01 A3021 RMK AO2 SLP213 T00781006 53012

More Conditions Fewer Conditions

10-Day Weather Forecast

Almanac

Astronomy

Oct. 01, 2014 Rise Set
Actual Time 6:56 AM PDT 6:42 PM PDT
Civil Twilight 6:29 AM PDT 7:09 PM PDT
Nautical Twilight 5:58 AM PDT 7:40 PM PDT
Astronomical Twilight 5:27 AM PDT 8:11 PM PDT
Moon 1:58 PM PDT (10/1) No Moon Set
Length of Visible Light 12h 39m
Length of Day
11h 46m
Tomorrow will be 2m 29s shorter.
First Quarter, 54% of the Moon is Illuminated
Today
First Quarter
Oct 8
Full
Oct 15
Last Quarter
Oct 23
New
Oct 30
First Quarter

Today's Extremes

State Highs State Lows

Community

WunderPhotos

Upload Photos

1,758,170 photos uploaded!

Nearby

Air Quality

  Air Quality AQ Index Pollutant
Yesterday Good
PM2.5
Current Good
OZONE
Wednesday Moderate
OZONE
Thursday Moderate
OZONE
Friday Moderate
OZONE
Saturday Moderate
OZONE

Snow Depth

Station Depth Elevation
Ebbetts Pass 0 in 8700 ft
Leavitt Meadows 1 in 7200 ft
Monitor Pass 1 in 8350 ft
Forestdale Creek 0 in 8029 ft
Fallen Leaf 0 in 6300 ft

Earthquake Activity

City Distance Mag. Time & Date
East Foothills, California 125 miles 2.6 3:34 PM PDT
2014-09-30
Minimum magnitude displayed is 2.5.

Coastal Water Temperatures

Place Temperature
No Stations Reporting

Nearby Weather Stations